Time;durP1;ratioP1;P1;durP2;ratioP2;P2;SDS_P1;SDS_P2;PMS_P1;PMS_P2;Temp;Humidity;BMP_temperature;BMP_pressure;BME280_temperature;BME280_humidity;BME280_pressure;Samples;Min_cycle;Max_cycle;Signal;HPM_P1;HPM_P2
2022/12/03 00:01:25;;;;;;;;;;;;;;;1.65;81.51;98204.16;5013357;28;19936;-77
2022/12/03 00:03:54;;;;;;;;;;;;;;;1.64;81.47;98203.34;5009141;28;19944;-78
2022/12/03 00:06:23;;;;;;;;;;;;;;;1.66;81.62;98200.44;4994403;28;19936;-77
2022/12/03 00:08:52;;;;;;;;;;;;;;;1.71;80.74;98204.00;5008568;28;20352;-78
2022/12/03 00:11:22;;;;;;;;;;;;;;;1.68;81.36;98207.16;5018254;28;19933;-75
2022/12/03 00:13:50;;;;;;;;;;;;;;;1.70;81.23;98201.56;5008238;28;19963;-76
2022/12/03 00:16:23;;;;;;;;;;;;;;;1.62;81.42;98205.47;5000045;28;19948;-77
2022/12/03 00:18:51;;;;;;;;;;;;;;;1.58;81.93;98205.16;5014648;28;20456;-77
2022/12/03 00:21:20;;;;;;;;;;;;;;;1.61;81.50;98206.53;4995893;28;19940;-77
2022/12/03 00:23:51;;;;;;;;;;;;;;;1.64;81.63;98202.53;5009524;28;20398;-77
2022/12/03 00:26:19;;;;;;;;;;;;;;;1.61;82.00;98195.00;5010068;28;19947;-76
2022/12/03 00:28:53;;;;;;;;;;;;;;;1.58;81.78;98189.06;5013473;28;19929;-77
2022/12/03 00:31:22;;;;;;;;;;;;;;;1.57;82.32;98187.47;5014292;28;20328;-73
2022/12/03 00:36:43;;;;;;;;;;;;;;;1.54;82.55;98195.97;4999744;28;19932;-77
2022/12/03 00:39:11;;;;;;;;;;;;;;;1.53;82.18;98196.22;4998858;28;19932;-76
2022/12/03 00:41:39;;;;;;;;;;;;;;;1.56;82.25;98191.19;5006603;28;19980;-77
2022/12/03 00:44:10;;;;;;;;;;;;;;;1.54;82.28;98195.16;5008022;28;19929;-77
2022/12/03 00:46:40;;;;;;;;;;;;;;;1.48;82.39;98196.16;4989551;28;19976;-77
2022/12/03 00:49:08;;;;;;;;;;;;;;;1.49;82.54;98195.94;4982974;28;19926;-77
2022/12/03 00:51:38;;;;;;;;;;;;;;;1.51;82.27;98198.34;4995445;28;21336;-76
2022/12/03 00:54:06;;;;;;;;;;;;;;;1.51;82.55;98193.00;4992722;28;19935;-77
2022/12/03 00:56:34;;;;;;;;;;;;;;;1.44;82.55;98187.81;5008569;28;19925;-76
2022/12/03 00:59:03;;;;;;;;;;;;;;;1.46;82.03;98192.91;4999856;28;19932;-77
2022/12/03 01:01:32;;;;;;;;;;;;;;;1.58;81.91;98193.63;5007781;28;19937;-75
2022/12/03 01:04:02;;;;;;;;;;;;;;;1.58;81.81;98199.78;5006035;28;19956;-77
2022/12/03 01:06:31;;;;;;;;;;;;;;;1.51;81.84;98203.72;5002670;28;20023;-77
2022/12/03 01:09:00;;;;;;;;;;;;;;;1.47;82.23;98202.56;4999239;28;20002;-77
2022/12/03 01:11:37;;;;;;;;;;;;;;;1.48;82.17;98198.81;5004130;28;19967;-77
2022/12/03 01:14:05;;;;;;;;;;;;;;;1.55;82.60;98199.50;5006397;28;19959;-77
2022/12/03 01:16:35;;;;;;;;;;;;;;;1.61;82.06;98203.06;5010613;28;19936;-74
2022/12/03 01:19:03;;;;;;;;;;;;;;;1.61;82.08;98197.69;4991060;28;19964;-78
2022/12/03 01:21:31;;;;;;;;;;;;;;;1.60;81.82;98201.41;5009284;28;19956;-77
2022/12/03 01:24:24;;;;;;;;;;;;;;;1.56;82.26;98199.25;5004746;28;19939;-77
2022/12/03 01:26:56;;;;;;;;;;;;;;;1.59;82.12;98205.94;4992305;28;19936;-75
2022/12/03 01:29:24;;;;;;;;;;;;;;;1.60;81.69;98209.44;5012727;28;19956;-77
2022/12/03 01:35:04;;;;;;;;;;;;;;;1.63;81.05;98206.28;5003084;28;20408;-76
2022/12/03 01:37:32;;;;;;;;;;;;;;;1.58;81.21;98207.81;5007918;28;19929;-77
2022/12/03 01:40:00;;;;;;;;;;;;;;;1.58;81.73;98207.00;5023705;28;19932;-77
2022/12/03 01:42:31;;;;;;;;;;;;;;;1.61;81.62;98203.06;5009877;28;19954;-77
2022/12/03 01:45:02;;;;;;;;;;;;;;;1.59;81.89;98200.59;5002110;28;19964;-76
2022/12/03 01:47:32;;;;;;;;;;;;;;;1.59;81.70;98200.59;4992567;28;19940;-77
2022/12/03 01:50:01;;;;;;;;;;;;;;;1.63;81.39;98195.56;4992482;28;20000;-77
2022/12/03 01:52:32;;;;;;;;;;;;;;;1.67;81.64;98197.50;5003833;28;19943;-76
2022/12/03 01:55:26;;;;;;;;;;;;;;;1.58;81.49;98191.75;5013465;28;20094;-76
2022/12/03 01:57:54;;;;;;;;;;;;;;;1.58;82.12;98193.63;5008416;28;19958;-77
2022/12/03 02:00:23;;;;;;;;;;;;;;;1.57;81.93;98187.47;4984236;28;20409;-74
2022/12/03 02:02:54;;;;;;;;;;;;;;;1.44;82.29;98198.53;5010072;28;19960;-77
2022/12/03 02:05:22;;;;;;;;;;;;;;;1.55;82.46;98200.28;4993757;28;20224;-76
2022/12/03 02:07:52;;;;;;;;;;;;;;;1.54;82.27;98204.00;4993910;28;20409;-77
2022/12/03 02:10:45;;;;;;;;;;;;;;;1.64;81.33;98203.34;5015338;28;19936;-77
2022/12/03 02:13:14;;;;;;;;;;;;;;;1.69;81.17;98205.28;4995809;28;19945;-77
2022/12/03 02:15:42;;;;;;;;;;;;;;;1.58;81.76;98199.78;5009176;28;19930;-78
2022/12/03 02:18:11;;;;;;;;;;;;;;;1.72;80.96;98204.81;5007740;28;19940;-77
2022/12/03 02:20:41;;;;;;;;;;;;;;;1.69;80.90;98199.94;5004236;28;19936;-76
2022/12/03 02:23:10;;;;;;;;;;;;;;;1.62;81.49;98192.09;5011424;28;19940;-77
2022/12/03 02:25:40;;;;;;;;;;;;;;;1.66;81.85;98197.78;4993229;28;19962;-77
2022/12/03 02:28:08;;;;;;;;;;;;;;;1.66;81.70;98201.25;5018447;28;19925;-77
2022/12/03 02:30:36;;;;;;;;;;;;;;;1.63;81.70;98198.25;4993595;28;19940;-77
2022/12/03 02:33:04;;;;;;;;;;;;;;;1.63;81.99;98200.94;5027151;28;19939;-77
2022/12/03 02:35:33;;;;;;;;;;;;;;;1.58;81.92;98198.97;5002333;28;19948;-75
2022/12/03 02:38:09;;;;;;;;;;;;;;;1.64;82.67;98202.53;5014308;28;19959;-75
2022/12/03 02:40:37;;;;;;;;;;;;;;;1.58;82.46;98207.81;5016901;28;20356;-78
2022/12/03 02:43:06;;;;;;;;;;;;;;;1.58;81.95;98213.19;5014887;28;19926;-77
2022/12/03 02:45:36;;;;;;;;;;;;;;;1.57;82.56;98203.53;5013089;28;20006;-77
2022/12/03 02:48:06;;;;;;;;;;;;;;;1.54;82.81;98206.69;4993313;28;19947;-77
2022/12/03 02:50:35;;;;;;;;;;;;;;;1.50;82.40;98204.78;4996890;28;19965;-76
2022/12/03 02:53:04;;;;;;;;;;;;;;;1.54;83.10;98209.38;4979290;28;19938;-77
2022/12/03 02:55:32;;;;;;;;;;;;;;;1.58;82.68;98210.50;4997252;28;19956;-74
2022/12/03 02:58:51;;;;;;;;;;;;;;;1.64;82.05;98203.34;5011220;28;20425;-76
2022/12/03 03:04:11;;;;;;;;;;;;;;;1.62;82.37;98207.34;5003086;28;19940;-77
2022/12/03 03:06:39;;;;;;;;;;;;;;;1.58;82.07;98209.69;4998589;28;19940;-77
2022/12/03 03:09:32;;;;;;;;;;;;;;;1.62;81.88;98218.06;5015371;28;19964;-78
2022/12/03 03:12:26;;;;;;;;;;;;;;;1.63;82.10;98211.63;5013349;28;19963;-77
2022/12/03 03:14:56;;;;;;;;;;;;;;;1.63;81.88;98211.63;5004560;28;19999;-78
2022/12/03 03:17:24;;;;;;;;;;;;;;;1.65;81.86;98210.34;5011665;28;19941;-73
2022/12/03 03:19:52;;;;;;;;;;;;;;;1.60;81.69;98217.47;4994684;28;19964;-73
2022/12/03 03:22:20;;;;;;;;;;;;;;;1.61;82.21;98213.75;5007418;28;19979;-77
2022/12/03 03:24:51;;;;;;;;;;;;;;;1.60;82.52;98212.97;4993871;28;19949;-77
2022/12/03 03:27:19;;;;;;;;;;;;;;;1.60;82.76;98209.44;5010214;28;20014;-77
2022/12/03 03:29:47;;;;;;;;;;;;;;;1.62;82.54;98208.16;5011249;28;19933;-76
2022/12/03 03:32:16;;;;;;;;;;;;;;;1.60;82.39;98204.91;5006105;28;19943;-77
2022/12/03 03:35:09;;;;;;;;;;;;;;;1.60;81.86;98207.59;5009938;28;19940;-77
2022/12/03 03:38:07;;;;;;;;;;;;;;;1.64;81.63;98215.94;5014474;28;19960;-77
2022/12/03 03:40:35;;;;;;;;;;;;;;;1.76;81.68;98216.66;5001107;28;19940;-77
2022/12/03 03:43:03;;;;;;;;;;;;;;;1.74;81.21;98208.03;5010874;28;19940;-77
2022/12/03 03:45:31;;;;;;;;;;;;;;;1.75;81.11;98218.50;4999483;28;19947;-77
2022/12/03 03:48:01;;;;;;;;;;;;;;;1.69;81.22;98207.97;4990859;28;19947;-77
2022/12/03 03:50:29;;;;;;;;;;;;;;;1.62;81.68;98212.69;4997886;28;19940;-77
2022/12/03 03:52:57;;;;;;;;;;;;;;;1.67;81.63;98215.44;4990512;28;19937;-77
2022/12/03 03:55:25;;;;;;;;;;;;;;;1.65;81.71;98212.19;4992563;28;20013;-77
2022/12/03 03:57:53;;;;;;;;;;;;;;;1.64;81.94;98219.41;5010350;28;19940;-77
2022/12/03 04:00:22;;;;;;;;;;;;;;;1.57;81.76;98219.59;5011595;28;19947;-72
2022/12/03 04:02:49;;;;;;;;;;;;;;;1.61;82.47;98219.13;4993817;28;19971;-75
2022/12/03 04:05:20;;;;;;;;;;;;;;;1.57;81.99;98214.25;4995235;28;19941;-76
2022/12/03 04:07:48;;;;;;;;;;;;;;;1.57;81.29;98208.88;4992857;28;19926;-77
2022/12/03 04:13:30;;;;;;;;;;;;;;;1.61;81.32;98205.72;4975343;28;19946;-76
2022/12/03 04:15:58;;;;;;;;;;;;;;;1.69;80.89;98205.28;4990241;28;19967;-77
2022/12/03 04:18:44;;;;;;;;;;;;;;;1.66;80.33;98200.44;5008386;28;19936;-77
2022/12/03 04:24:24;;;;;;;;;;;;;;;1.55;81.64;98194.94;5008507;28;20424;-76
2022/12/03 04:29:38;;;;;;;;;;;;;;;1.56;81.86;98195.75;4994985;28;19939;-75
2022/12/03 04:38:08;;;;;;;;;;;;;;;1.59;81.66;98192.56;5007073;28;19925;-76
2022/12/03 04:43:24;;;;;;;;;;;;;;;1.56;81.72;98199.25;5005025;28;20006;-77
2022/12/03 04:45:52;;;;;;;;;;;;;;;1.62;81.53;98196.63;5005890;28;19972;-77
2022/12/03 04:48:45;;;;;;;;;;;;;;;1.62;81.80;98193.97;4985649;28;20354;-74
2022/12/03 04:51:13;;;;;;;;;;;;;;;1.58;81.76;98204.34;5005911;28;19960;-77
2022/12/03 04:53:43;;;;;;;;;;;;;;;1.52;82.14;98200.78;4999738;28;20216;-78
2022/12/03 04:56:13;;;;;;;;;;;;;;;1.56;81.29;98198.44;5004519;28;19926;-77
2022/12/03 04:58:41;;;;;;;;;;;;;;;1.55;81.80;98197.63;4989592;28;20311;-77
2022/12/03 05:01:11;;;;;;;;;;;;;;;1.51;81.33;98193.00;5002675;28;20019;-77
2022/12/03 05:03:39;;;;;;;;;;;;;;;1.54;81.96;98187.13;5007440;28;19944;-77
2022/12/03 05:06:08;;;;;;;;;;;;;;;1.60;81.82;98190.69;5019466;28;20478;-78
2022/12/03 05:08:36;;;;;;;;;;;;;;;1.58;81.35;98189.06;4994985;28;19925;-76
2022/12/03 05:11:06;;;;;;;;;;;;;;;1.55;81.03;98194.94;5013404;28;19946;-74
2022/12/03 05:13:34;;;;;;;;;;;;;;;1.54;81.77;98187.94;5005083;28;19940;-77
2022/12/03 05:16:02;;;;;;;;;;;;;;;1.58;81.12;98191.75;5004929;28;19938;-75
2022/12/03 05:18:30;;;;;;;;;;;;;;;1.56;81.63;98191.19;5008085;28;19968;-77
2022/12/03 05:20:58;;;;;;;;;;;;;;;1.46;81.80;98193.72;5008266;28;20035;-77
2022/12/03 05:23:27;;;;;;;;;;;;;;;1.52;81.35;98190.06;5005085;28;19936;-77
2022/12/03 05:25:55;;;;;;;;;;;;;;;1.51;81.18;98182.28;4990136;28;19960;-77
2022/12/03 05:28:24;;;;;;;;;;;;;;;1.53;81.61;98182.84;5002671;28;19936;-76
2022/12/03 05:30:52;;;;;;;;;;;;;;;1.63;81.59;98184.84;5001835;28;19930;-76
2022/12/03 05:33:20;;;;;;;;;;;;;;;1.55;81.13;98188.78;5011396;28;19975;-77
2022/12/03 05:35:48;;;;;;;;;;;;;;;1.65;81.35;98188.09;5009737;28;19979;-77
2022/12/03 05:38:17;;;;;;;;;;;;;;;1.63;81.27;98190.22;5008196;28;20058;-77
2022/12/03 05:40:45;;;;;;;;;;;;;;;1.66;80.94;98190.53;5012276;28;20048;-77
2022/12/03 05:43:13;;;;;;;;;;;;;;;1.73;81.18;98187.69;4999620;28;19976;-77
2022/12/03 05:45:45;;;;;;;;;;;;;;;1.98;79.45;98190.69;5005494;28;20463;-77
2022/12/03 05:48:13;;;;;;;;;;;;;;;1.81;80.24;98184.56;5009491;28;19948;-77
2022/12/03 05:50:43;;;;;;;;;;;;;;;1.77;80.54;98180.78;5005872;28;19937;-76
2022/12/03 05:53:15;;;;;;;;;;;;;;;1.75;80.62;98178.31;5004228;28;19929;-76
2022/12/03 05:55:43;;;;;;;;;;;;;;;1.64;80.23;98181.94;5007481;28;20375;-76
2022/12/03 05:58:12;;;;;;;;;;;;;;;1.73;80.82;98188.50;5006152;28;20372;-78
2022/12/03 06:00:40;;;;;;;;;;;;;;;1.72;81.11;98178.03;4997496;28;19926;-76
2022/12/03 06:03:11;;;;;;;;;;;;;;;1.64;80.86;98175.75;5007807;28;19936;-75
2022/12/03 06:05:39;;;;;;;;;;;;;;;1.55;80.90;98184.22;5006211;28;19925;-77
2022/12/03 06:08:07;;;;;;;;;;;;;;;1.61;81.82;98184.31;5015965;28;19968;-76
2022/12/03 06:10:36;;;;;;;;;;;;;;;1.72;80.89;98178.84;4990927;28;19925;-77
2022/12/03 06:13:04;;;;;;;;;;;;;;;1.68;80.87;98176.91;4992936;28;20275;-76
2022/12/03 06:15:32;;;;;;;;;;;;;;;1.63;81.19;98174.94;5002345;28;20039;-77
2022/12/03 06:18:05;;;;;;;;;;;;;;;1.66;80.87;98179.81;5007417;28;19953;-76
2022/12/03 06:20:35;;;;;;;;;;;;;;;1.62;80.97;98175.22;4995193;28;19926;-77
2022/12/03 06:23:09;;;;;;;;;;;;;;;1.66;80.92;98181.69;5005446;28;19925;-77
2022/12/03 06:25:38;;;;;;;;;;;;;;;1.70;81.16;98180.94;5004609;28;20303;-77
2022/12/03 06:28:06;;;;;;;;;;;;;;;1.82;80.13;98183.53;5002517;28;19934;-77
2022/12/03 06:30:34;;;;;;;;;;;;;;;1.81;80.85;98189.91;4993741;28;19932;-76
2022/12/03 06:33:03;;;;;;;;;;;;;;;1.84;80.79;98194.78;5007930;28;19957;-77
2022/12/03 06:35:31;;;;;;;;;;;;;;;1.88;80.08;98193.25;5017139;28;19930;-76
2022/12/03 06:38:24;;;;;;;;;;;;;;;1.74;80.69;98200.00;5017580;28;19975;-76
2022/12/03 06:40:54;;;;;;;;;;;;;;;1.73;80.70;98201.06;5004495;28;20368;-77
2022/12/03 06:43:22;;;;;;;;;;;;;;;1.66;81.02;98198.56;5004543;28;20440;-73
2022/12/03 06:45:49;;;;;;;;;;;;;;;1.66;81.18;98200.44;5011382;28;20592;-76
2022/12/03 06:48:42;;;;;;;;;;;;;;;1.71;80.86;98197.84;5008420;28;19932;-74
2022/12/03 06:51:35;;;;;;;;;;;;;;;1.79;81.21;98210.78;4999139;28;20453;-73
2022/12/03 06:54:04;;;;;;;;;;;;;;;1.71;80.51;98205.88;5009262;28;19932;-77
2022/12/03 06:56:34;;;;;;;;;;;;;;;1.67;80.62;98199.38;5004671;28;19933;-76
2022/12/03 06:59:09;;;;;;;;;;;;;;;1.77;80.49;98205.69;5002632;28;19983;-76
2022/12/03 07:01:37;;;;;;;;;;;;;;;1.76;80.18;98201.41;5005726;28;19956;-77
2022/12/03 07:04:05;;;;;;;;;;;;;;;1.65;79.95;98201.47;4998738;28;19929;-77
2022/12/03 07:06:34;;;;;;;;;;;;;;;1.62;80.56;98210.84;5006638;28;19926;-76
2022/12/03 07:09:02;;;;;;;;;;;;;;;1.57;81.14;98208.88;4993001;28;19929;-76
2022/12/03 07:11:38;;;;;;;;;;;;;;;1.63;80.79;98211.63;5008519;28;19937;-75
2022/12/03 07:14:09;;;;;;;;;;;;;;;1.68;80.97;98209.84;4995632;28;20405;-78
2022/12/03 07:16:38;;;;;;;;;;;;;;;1.73;81.17;98211.78;5001346;28;19929;-80
2022/12/03 07:19:06;;;;;;;;;;;;;;;1.80;81.23;98212.41;5020442;28;19966;-75
2022/12/03 07:24:30;;;;;;;;;;;;;;;1.75;80.48;98212.34;5021436;28;19963;-79
2022/12/03 07:26:58;;;;;;;;;;;;;;;1.77;80.26;98208.38;5024808;23;19952;-73
2022/12/03 07:29:28;;;;;;;;;;;;;;;1.75;79.93;98206.97;5005665;28;19980;-73
2022/12/03 07:31:56;;;;;;;;;;;;;;;1.95;79.70;98215.31;5132996;23;19933;-77
2022/12/03 07:34:25;;;;;;;;;;;;;;;1.90;80.50;98212.56;5396722;23;20151;-81
2022/12/03 07:36:54;;;;;;;;;;;;;;;1.82;79.74;98215.66;5049194;28;19939;-79
2022/12/03 07:39:23;;;;;;;;;;;;;;;1.84;80.29;98219.72;5047087;28;19955;-77
2022/12/03 07:41:52;;;;;;;;;;;;;;;1.91;79.87;98211.47;5027673;28;19925;-80
2022/12/03 07:47:20;;;;;;;;;;;;;;;1.84;80.32;98210.88;5165528;23;19960;-76
2022/12/03 07:49:49;;;;;;;;;;;;;;;1.84;80.59;98208.19;4988908;28;19936;-80
2022/12/03 07:52:20;;;;;;;;;;;;;;;1.89;80.21;98199.41;4966641;28;19968;-77
2022/12/03 07:54:50;;;;;;;;;;;;;;;1.86;79.92;98207.94;4990923;28;20313;-74
2022/12/03 07:57:48;;;;;;;;;;;;;;;1.89;79.88;98216.28;5016870;28;19970;-81
2022/12/03 08:00:56;;;;;;;;;;;;;;;1.94;80.65;98211.00;4969575;28;19994;-70
2022/12/03 08:03:28;;;;;;;;;;;;;;;1.90;80.26;98204.50;4964998;28;19983;-71
2022/12/03 08:05:57;;;;;;;;;;;;;;;1.93;80.12;98205.91;4972063;28;19957;-76
2022/12/03 08:08:25;;;;;;;;;;;;;;;2.04;80.02;98203.09;4956288;28;20326;-76
2022/12/03 08:10:54;;;;;;;;;;;;;;;2.05;79.81;98199.34;4969010;28;19936;-77
2022/12/03 08:13:22;;;;;;;;;;;;;;;2.10;79.80;98212.81;4973092;28;20023;-70
2022/12/03 08:15:51;;;;;;;;;;;;;;;2.03;79.33;98198.81;4975539;28;20274;-76
2022/12/03 08:18:20;;;;;;;;;;;;;;;2.01;79.60;98192.88;4968835;28;19977;-76
2022/12/03 08:20:51;;;;;;;;;;;;;;;1.98;79.73;98198.75;4953532;28;19976;-76
2022/12/03 08:23:20;;;;;;;;;;;;;;;1.92;79.26;98191.69;4956084;28;20402;-78
2022/12/03 08:25:49;;;;;;;;;;;;;;;1.98;79.98;98204.09;4973636;28;19947;-76
2022/12/03 08:28:18;;;;;;;;;;;;;;;2.04;79.83;98203.09;4972725;28;19937;-78
2022/12/03 08:30:48;;;;;;;;;;;;;;;2.07;79.56;98191.88;4972776;28;20344;-75
2022/12/03 08:33:17;;;;;;;;;;;;;;;2.14;78.97;98186.34;4967254;28;19960;-77
2022/12/03 08:35:48;;;;;;;;;;;;;;;2.21;79.13;98186.13;4969320;28;20380;-77
2022/12/03 08:38:18;;;;;;;;;;;;;;;2.09;78.76;98183.59;4952400;28;19953;-78
2022/12/03 08:40:47;;;;;;;;;;;;;;;2.09;78.75;98179.03;4968158;28;20288;-75
2022/12/03 08:43:19;;;;;;;;;;;;;;;2.03;79.19;98182.72;4969627;28;20007;-76
2022/12/03 08:45:48;;;;;;;;;;;;;;;2.06;79.70;98179.53;4953659;28;19926;-75
2022/12/03 08:48:42;;;;;;;;;;;;;;;2.22;79.05;98182.41;4969121;28;20060;-71
2022/12/03 08:51:20;;;;;;;;;;;;;;;2.15;79.55;98177.22;4971587;28;19945;-78
2022/12/03 08:53:50;;;;;;;;;;;;;;;2.05;79.09;98167.19;4956019;28;19936;-75
2022/12/03 08:56:23;;;;;;;;;;;;;;;2.13;79.39;98168.66;4966406;28;19961;-76
2022/12/03 08:58:52;;;;;;;;;;;;;;;2.20;79.63;98176.50;4972755;28;19963;-76
2022/12/03 09:01:28;;;;;;;;;;;;;;;2.32;79.49;98179.84;4989676;28;19963;-78
2022/12/03 09:03:56;;;;;;;;;;;;;;;2.26;78.24;98178.16;4988611;28;19929;-76
2022/12/03 09:06:24;;;;;;;;;;;;;;;2.25;79.16;98180.03;4987120;28;19943;-78
2022/12/03 09:08:54;;;;;;;;;;;;;;;2.27;79.29;98177.09;4990248;28;20307;-79
2022/12/03 09:11:22;;;;;;;;;;;;;;;2.17;79.14;98179.66;4980668;28;19984;-73
2022/12/03 09:13:50;;;;;;;;;;;;;;;2.21;79.17;98191.50;5008589;28;19947;-80
2022/12/03 09:16:18;;;;;;;;;;;;;;;2.35;79.02;98182.03;5005014;28;19966;-75
2022/12/03 09:18:46;;;;;;;;;;;;;;;2.22;78.48;98177.84;5001876;28;19979;-80
2022/12/03 09:21:15;;;;;;;;;;;;;;;2.34;78.89;98193.78;5005074;28;19941;-72
2022/12/03 09:23:45;;;;;;;;;;;;;;;2.40;78.73;98194.66;5011639;28;19962;-78
2022/12/03 09:26:15;;;;;;;;;;;;;;;2.50;77.73;98197.44;4995059;28;19921;-75
2022/12/03 09:28:45;;;;;;;;;;;;;;;2.40;77.56;98198.16;4998192;28;19936;-73
2022/12/03 09:34:03;;;;;;;;;;;;;;;2.46;77.74;98188.31;5134752;22;19910;-82
2022/12/03 09:36:36;;;;;;;;;;;;;;;2.41;77.90;98191.75;5012220;28;19914;-81
2022/12/03 09:39:07;;;;;;;;;;;;;;;2.47;77.89;98193.41;5022651;28;19940;-81
2022/12/03 09:41:40;;;;;;;;;;;;;;;2.49;78.10;98190.47;5025942;28;19925;-78
2022/12/03 09:44:09;;;;;;;;;;;;;;;2.34;77.69;98183.91;5007275;28;19933;-73
2022/12/03 09:46:49;;;;;;;;;;;;;;;2.41;77.96;98190.94;5003164;28;19936;-80
2022/12/03 09:49:17;;;;;;;;;;;;;;;2.41;77.87;98197.09;4999286;28;19980;-76
2022/12/03 09:51:48;;;;;;;;;;;;;;;2.42;77.85;98184.50;5187398;23;19913;-71
2022/12/03 09:54:20;;;;;;;;;;;;;;;2.47;78.12;98190.72;5037149;28;19909;-80
2022/12/03 09:56:50;;;;;;;;;;;;;;;2.77;76.53;98189.41;5053828;28;19920;-69
2022/12/03 09:59:18;;;;;;;;;;;;;;;2.71;76.40;98185.88;5035359;28;19932;-76
2022/12/03 10:01:49;;;;;;;;;;;;;;;2.55;76.81;98184.91;5045530;22;19959;-78
2022/12/03 10:04:17;;;;;;;;;;;;;;;2.62;76.67;98185.53;4965273;28;19926;-74
2022/12/03 10:06:45;;;;;;;;;;;;;;;2.61;76.83;98186.59;4949611;28;19933;-73
2022/12/03 10:09:16;;;;;;;;;;;;;;;2.65;77.00;98186.88;4946535;28;19934;-73
2022/12/03 10:11:44;;;;;;;;;;;;;;;2.71;76.75;98182.38;4945967;28;19958;-73
2022/12/03 10:14:18;;;;;;;;;;;;;;;2.70;76.49;98175.41;4950258;28;19927;-73
2022/12/03 10:16:47;;;;;;;;;;;;;;;2.62;76.59;98188.22;4968918;28;19926;-80
2022/12/03 10:19:25;;;;;;;;;;;;;;;2.68;76.76;98181.03;4992181;28;19926;-80
2022/12/03 10:21:55;;;;;;;;;;;;;;;2.82;76.55;98171.50;5001657;23;19965;-74
2022/12/03 10:24:25;;;;;;;;;;;;;;;2.80;76.27;98151.34;5003248;28;19930;-73
2022/12/03 10:26:54;;;;;;;;;;;;;;;2.68;75.91;98131.94;5000475;28;19932;-75
2022/12/03 10:29:25;;;;;;;;;;;;;;;2.54;76.57;98132.31;5003036;28;19925;-72
2022/12/03 10:32:01;;;;;;;;;;;;;;;2.55;77.25;98133.94;5005509;28;19933;-74
2022/12/03 10:34:31;;;;;;;;;;;;;;;2.69;76.89;98133.53;5006727;28;19930;-74
2022/12/03 10:40:17;;;;;;;;;;;;;;;2.94;76.72;98136.44;5013025;28;19929;-73
2022/12/03 10:42:45;;;;;;;;;;;;;;;2.96;76.58;98128.94;5011741;28;19931;-75
2022/12/03 10:45:17;;;;;;;;;;;;;;;3.04;75.78;98127.69;4999820;28;20439;-74
2022/12/03 10:48:00;;;;;;;;;;;;;;;3.04;75.84;98125.00;5020279;28;19932;-75
2022/12/03 10:50:29;;;;;;;;;;;;;;;2.96;75.80;98120.09;5014093;28;19932;-74
2022/12/03 10:53:22;;;;;;;;;;;;;;;3.06;76.03;98133.59;5016417;28;19932;-75
2022/12/03 10:55:51;;;;;;;;;;;;;;;2.96;76.12;98128.13;5005510;28;20302;-73
2022/12/03 10:58:45;;;;;;;;;;;;;;;2.94;76.14;98131.09;4987822;28;19925;-74
2022/12/03 11:01:15;;;;;;;;;;;;;;;3.00;75.91;98124.69;5002954;28;19936;-72
2022/12/03 11:03:44;;;;;;;;;;;;;;;3.03;75.26;98110.72;5001753;28;19933;-75
2022/12/03 11:06:14;;;;;;;;;;;;;;;3.11;75.25;98121.00;4991000;28;20508;-75
2022/12/03 11:08:42;;;;;;;;;;;;;;;3.06;75.31;98118.28;5007317;28;19929;-72
2022/12/03 11:11:17;;;;;;;;;;;;;;;3.13;73.81;98118.06;5007192;28;19933;-75
2022/12/03 11:13:50;;;;;;;;;;;;;;;3.20;74.36;98117.84;5007970;28;19925;-74
2022/12/03 11:16:37;;;;;;;;;;;;;;;3.14;74.46;98112.44;5007388;28;20391;-74
2022/12/03 11:19:08;;;;;;;;;;;;;;;3.16;74.17;98109.50;4987929;28;19932;-74
2022/12/03 11:22:03;;;;;;;;;;;;;;;3.23;74.87;98101.22;5002864;28;20366;-74
2022/12/03 11:24:34;;;;;;;;;;;;;;;3.15;75.16;98097.16;5003603;28;20002;-74
2022/12/03 11:27:23;;;;;;;;;;;;;;;3.20;75.00;98096.38;5003364;28;20036;-78
2022/12/03 11:30:22;;;;;;;;;;;;;;;3.23;75.21;98093.16;4996084;28;19933;-78
2022/12/03 11:32:59;;;;;;;;;;;;;;;3.28;73.75;98090.50;5002851;28;19933;-75
2022/12/03 11:35:34;;;;;;;;;;;;;;;3.30;74.14;98083.81;5008061;28;20286;-75
2022/12/03 11:38:21;;;;;;;;;;;;;;;3.23;74.49;98074.38;5012875;28;20286;-77
2022/12/03 11:41:04;;;;;;;;;;;;;;;3.23;73.71;98079.72;5006124;28;19955;-78
2022/12/03 11:43:51;;;;;;;;;;;;;;;3.24;74.49;98075.97;5015342;28;19929;-77
2022/12/03 11:46:19;;;;;;;;;;;;;;;3.26;73.91;98076.53;5015487;28;19925;-76
2022/12/03 11:48:48;;;;;;;;;;;;;;;3.28;74.49;98072.50;5009586;28;20019;-77
2022/12/03 11:51:18;;;;;;;;;;;;;;;3.27;74.46;98078.97;5013624;28;20367;-77
2022/12/03 11:53:48;;;;;;;;;;;;;;;3.33;74.22;98074.44;5008323;28;20366;-77
2022/12/03 11:56:17;;;;;;;;;;;;;;;3.22;74.12;98068.19;5002331;28;19925;-77
2022/12/03 11:58:46;;;;;;;;;;;;;;;3.23;74.34;98063.63;5001905;28;19925;-76
2022/12/03 12:01:15;;;;;;;;;;;;;;;3.20;74.24;98067.66;4996150;28;19933;-76
2022/12/03 12:03:44;;;;;;;;;;;;;;;3.29;73.66;98063.38;5011537;28;19929;-73
2022/12/03 12:06:13;;;;;;;;;;;;;;;3.13;74.11;98051.75;4995210;28;19925;-77
2022/12/03 12:08:55;;;;;;;;;;;;;;;3.15;73.89;98062.25;5009421;28;19933;-71
2022/12/03 12:11:25;;;;;;;;;;;;;;;3.28;74.10;98060.97;5012576;28;19933;-75
2022/12/03 12:13:55;;;;;;;;;;;;;;;3.25;74.05;98056.94;5008711;28;19926;-78
2022/12/03 12:16:36;;;;;;;;;;;;;;;3.23;74.49;98055.56;5009928;28;19929;-76
2022/12/03 12:19:18;;;;;;;;;;;;;;;3.21;74.42;98053.16;5002931;28;19926;-78
2022/12/03 12:22:38;;;;;;;;;;;;;;;3.03;74.81;98059.72;5009018;28;20068;-77
2022/12/03 12:25:21;;;;;;;;;;;;;;;3.12;75.03;98058.19;5014998;28;19925;-73
2022/12/03 12:27:54;;;;;;;;;;;;;;;3.15;74.40;98057.69;5002576;28;19929;-76
2022/12/03 12:30:24;;;;;;;;;;;;;;;3.25;74.87;98053.41;5007887;28;19936;-71
2022/12/03 12:32:53;;;;;;;;;;;;;;;3.26;74.13;98053.19;5004617;28;19996;-76
2022/12/03 12:35:22;;;;;;;;;;;;;;;3.23;73.62;98051.00;4993747;28;20376;-77
2022/12/03 12:37:52;;;;;;;;;;;;;;;3.22;73.79;98051.28;5016789;28;19926;-76
2022/12/03 12:40:27;;;;;;;;;;;;;;;3.38;72.39;98034.16;4999458;28;19960;-73
2022/12/03 12:43:24;;;;;;;;;;;;;;;3.24;72.24;98027.66;5018801;28;19933;-76
2022/12/03 12:45:53;;;;;;;;;;;;;;;3.32;71.73;98035.22;5010666;28;20346;-78
2022/12/03 12:48:46;;;;;;;;;;;;;;;3.31;72.40;98036.28;5004356;28;19925;-78
2022/12/03 12:51:17;;;;;;;;;;;;;;;3.33;72.14;98034.16;5008791;28;20476;-78
2022/12/03 12:53:45;;;;;;;;;;;;;;;3.28;72.51;98039.50;5004491;28;19933;-67
2022/12/03 12:56:18;;;;;;;;;;;;;;;3.24;72.69;98033.03;5011210;28;19929;-70
2022/12/03 12:58:49;;;;;;;;;;;;;;;3.20;72.30;98034.63;4991606;28;20765;-71
2022/12/03 13:01:20;;;;;;;;;;;;;;;3.28;73.46;98028.75;5015042;28;19925;-70
2022/12/03 13:03:49;;;;;;;;;;;;;;;3.21;72.84;98025.50;5003705;28;20003;-70
2022/12/03 13:06:17;;;;;;;;;;;;;;;3.30;73.62;98026.59;4985708;28;19926;-70
2022/12/03 13:09:13;;;;;;;;;;;;;;;3.17;73.27;98022.53;4989229;28;19970;-70
2022/12/03 13:11:44;;;;;;;;;;;;;;;3.08;73.23;98016.00;4999154;28;20569;-70
2022/12/03 13:14:18;;;;;;;;;;;;;;;3.12;73.06;98015.25;5004677;28;20272;-69
2022/12/03 13:16:47;;;;;;;;;;;;;;;3.09;72.49;98015.78;5007930;28;20334;-70
2022/12/03 13:19:23;;;;;;;;;;;;;;;3.16;72.58;98012.84;4992816;28;20306;-70
2022/12/03 13:21:52;;;;;;;;;;;;;;;3.27;72.74;98016.41;5008543;28;19929;-70
2022/12/03 13:24:33;;;;;;;;;;;;;;;3.23;72.91;98009.94;5008164;28;19941;-70
2022/12/03 13:27:02;;;;;;;;;;;;;;;3.11;72.98;98010.94;5006662;28;20023;-70
2022/12/03 13:29:32;;;;;;;;;;;;;;;3.09;72.56;98009.56;4994767;28;19925;-70
2022/12/03 13:32:02;;;;;;;;;;;;;;;3.00;73.88;98001.22;4992026;28;19925;-71
2022/12/03 13:34:32;;;;;;;;;;;;;;;3.10;72.58;98001.28;4993015;28;19933;-70
2022/12/03 13:37:27;;;;;;;;;;;;;;;3.13;72.65;98010.69;5001891;28;19936;-70
2022/12/03 13:39:56;;;;;;;;;;;;;;;3.09;73.25;98013.09;4991212;28;19930;-70
2022/12/03 13:42:41;;;;;;;;;;;;;;;3.03;73.13;98013.31;5012393;28;19944;-70
2022/12/03 13:45:26;;;;;;;;;;;;;;;3.11;73.66;98012.81;4995517;28;19926;-69
2022/12/03 13:47:55;;;;;;;;;;;;;;;2.91;72.52;98013.50;4999211;28;20295;-69
2022/12/03 13:50:25;;;;;;;;;;;;;;;2.88;72.97;98004.13;4999966;28;19926;-69
2022/12/03 13:52:53;;;;;;;;;;;;;;;2.91;72.84;98008.13;5015080;28;19968;-69
2022/12/03 13:55:47;;;;;;;;;;;;;;;3.00;72.51;98005.78;5006762;28;19929;-68
2022/12/03 13:58:16;;;;;;;;;;;;;;;3.02;73.26;98014.38;5009935;28;19932;-69
2022/12/03 14:00:45;;;;;;;;;;;;;;;2.92;73.38;98009.75;5007479;28;19984;-68
2022/12/03 14:03:40;;;;;;;;;;;;;;;2.92;74.20;98003.56;5005542;28;19925;-70